Terminal Aerodrome Forecast
Issued by NWS

Home | Current Version | Previous Version | Graphics & Text | Print | Product List | Glossary On
Versions: 1 2 3 4 5 6 7 8 9 10 11 12 13 14 15 16 17 18 19 20 21 22 23 24 25 26 27 28 29 30 31
112
FTUS43 KABR 281138
TAFPIR
TAF
KPIR 281138Z 2812/0112 04008KT P6SM OVC008
     FM281400 04010KT 5SM -SN OVC008
     FM281700 04009KT P6SM OVC010
     FM010300 36005KT P6SM BKN015=

USA.gov is the U.S. government's official web portal to all federal, state and local government web resources and services.